sensor_id;sensor_type;location;lat;lon;timestamp;pressure;altitude;pressure_sealevel;temperature;humidity
58662;BME280;44432;49.786;22.760;2022-08-05T00:00:34;99469.12;;;16.74;72.92
58662;BME280;44432;49.786;22.760;2022-08-05T00:03:08;99462.41;;;16.70;73.06
58662;BME280;44432;49.786;22.760;2022-08-05T00:05:39;99466.89;;;16.63;72.93
58662;BME280;44432;49.786;22.760;2022-08-05T00:08:11;99469.73;;;16.59;73.10
58662;BME280;44432;49.786;22.760;2022-08-05T00:10:42;99469.20;;;16.55;73.19
58662;BME280;44432;49.786;22.760;2022-08-05T00:13:12;99468.88;;;16.51;73.31
58662;BME280;44432;49.786;22.760;2022-08-05T00:15:43;99467.41;;;16.49;73.37
58662;BME280;44432;49.786;22.760;2022-08-05T00:18:13;99466.27;;;16.47;73.37
58662;BME280;44432;49.786;22.760;2022-08-05T00:20:44;99466.23;;;16.45;73.41
58662;BME280;44432;49.786;22.760;2022-08-05T00:23:15;99464.66;;;16.43;73.59
58662;BME280;44432;49.786;22.760;2022-08-05T00:25:45;99459.78;;;16.40;73.66
58662;BME280;44432;49.786;22.760;2022-08-05T00:28:16;99455.84;;;16.37;73.75
58662;BME280;44432;49.786;22.760;2022-08-05T00:30:47;99454.48;;;16.34;73.87
58662;BME280;44432;49.786;22.760;2022-08-05T00:33:17;99451.20;;;16.33;74.03
58662;BME280;44432;49.786;22.760;2022-08-05T00:35:48;99454.11;;;16.31;74.14
58662;BME280;44432;49.786;22.760;2022-08-05T00:38:18;99451.58;;;16.29;74.19
58662;BME280;44432;49.786;22.760;2022-08-05T00:40:51;99448.13;;;16.26;74.35
58662;BME280;44432;49.786;22.760;2022-08-05T00:43:22;99450.49;;;16.24;74.45
58662;BME280;44432;49.786;22.760;2022-08-05T00:45:53;99448.73;;;16.20;74.62
58662;BME280;44432;49.786;22.760;2022-08-05T00:48:23;99452.23;;;16.19;74.69
58662;BME280;44432;49.786;22.760;2022-08-05T00:50:54;99448.63;;;16.17;74.59
58662;BME280;44432;49.786;22.760;2022-08-05T00:53:25;99448.96;;;16.14;74.65
58662;BME280;44432;49.786;22.760;2022-08-05T00:55:56;99448.17;;;16.11;74.67
58662;BME280;44432;49.786;22.760;2022-08-05T00:58:26;99450.08;;;16.07;74.83
58662;BME280;44432;49.786;22.760;2022-08-05T01:00:57;99446.53;;;16.04;74.78
58662;BME280;44432;49.786;22.760;2022-08-05T01:03:27;99444.58;;;16.02;74.81
58662;BME280;44432;49.786;22.760;2022-08-05T01:05:58;99444.47;;;15.98;74.86
58662;BME280;44432;49.786;22.760;2022-08-05T01:08:29;99446.04;;;15.96;75.08
58662;BME280;44432;49.786;22.760;2022-08-05T01:11:03;99443.56;;;15.95;75.15
58662;BME280;44432;49.786;22.760;2022-08-05T01:13:43;99444.07;;;15.93;75.23
58662;BME280;44432;49.786;22.760;2022-08-05T01:16:24;99444.73;;;15.91;75.33
58662;BME280;44432;49.786;22.760;2022-08-05T01:19:10;99446.38;;;15.87;75.38
58662;BME280;44432;49.786;22.760;2022-08-05T01:22:05;99444.62;;;15.84;75.49
58662;BME280;44432;49.786;22.760;2022-08-05T01:24:49;99446.70;;;15.81;75.60
58662;BME280;44432;49.786;22.760;2022-08-05T01:27:37;99444.31;;;15.78;75.54
58662;BME280;44432;49.786;22.760;2022-08-05T01:30:08;99447.02;;;15.75;75.68
58662;BME280;44432;49.786;22.760;2022-08-05T01:32:41;99445.17;;;15.72;75.83
58662;BME280;44432;49.786;22.760;2022-08-05T01:35:16;99441.10;;;15.70;75.92
58662;BME280;44432;49.786;22.760;2022-08-05T01:37:52;99437.83;;;15.68;75.91
58662;BME280;44432;49.786;22.760;2022-08-05T01:40:26;99442.70;;;15.67;76.02
58662;BME280;44432;49.786;22.760;2022-08-05T01:43:00;99443.23;;;15.65;76.13
58662;BME280;44432;49.786;22.760;2022-08-05T01:45:32;99440.71;;;15.62;76.19
58662;BME280;44432;49.786;22.760;2022-08-05T01:48:04;99439.03;;;15.61;76.26
58662;BME280;44432;49.786;22.760;2022-08-05T01:50:38;99439.08;;;15.60;76.39
58662;BME280;44432;49.786;22.760;2022-08-05T01:53:12;99442.48;;;15.58;76.46
58662;BME280;44432;49.786;22.760;2022-08-05T01:55:46;99437.95;;;15.58;76.46
58662;BME280;44432;49.786;22.760;2022-08-05T01:58:20;99437.06;;;15.57;76.74
58662;BME280;44432;49.786;22.760;2022-08-05T02:00:54;99436.08;;;15.56;76.73
58662;BME280;44432;49.786;22.760;2022-08-05T02:03:28;99434.07;;;15.54;76.76
58662;BME280;44432;49.786;22.760;2022-08-05T02:06:03;99436.09;;;15.51;76.87
58662;BME280;44432;49.786;22.760;2022-08-05T02:08:35;99429.21;;;15.47;76.94
58662;BME280;44432;49.786;22.760;2022-08-05T02:11:08;99435.48;;;15.47;77.05
58662;BME280;44432;49.786;22.760;2022-08-05T02:13:43;99434.41;;;15.43;77.08
58662;BME280;44432;49.786;22.760;2022-08-05T02:16:23;99433.78;;;15.40;77.00
58662;BME280;44432;49.786;22.760;2022-08-05T02:18:57;99431.09;;;15.38;76.99
58662;BME280;44432;49.786;22.760;2022-08-05T02:21:32;99427.98;;;15.36;77.03
58662;BME280;44432;49.786;22.760;2022-08-05T02:24:07;99427.83;;;15.34;77.04
58662;BME280;44432;49.786;22.760;2022-08-05T02:26:47;99427.79;;;15.32;77.08
58662;BME280;44432;49.786;22.760;2022-08-05T02:29:22;99428.02;;;15.29;77.10
58662;BME280;44432;49.786;22.760;2022-08-05T02:31:54;99424.71;;;15.27;77.20
58662;BME280;44432;49.786;22.760;2022-08-05T02:34:30;99422.16;;;15.24;77.15
58662;BME280;44432;49.786;22.760;2022-08-05T02:37:06;99419.70;;;15.20;77.24
58662;BME280;44432;49.786;22.760;2022-08-05T02:39:38;99419.08;;;15.18;77.34
58662;BME280;44432;49.786;22.760;2022-08-05T02:42:10;99419.91;;;15.15;77.38
58662;BME280;44432;49.786;22.760;2022-08-05T02:44:42;99422.06;;;15.12;77.45
58662;BME280;44432;49.786;22.760;2022-08-05T02:47:15;99423.89;;;15.11;77.46
58662;BME280;44432;49.786;22.760;2022-08-05T02:49:47;99422.79;;;15.09;77.61
58662;BME280;44432;49.786;22.760;2022-08-05T02:52:19;99421.68;;;15.07;77.74
58662;BME280;44432;49.786;22.760;2022-08-05T02:54:51;99423.83;;;15.04;77.79
58662;BME280;44432;49.786;22.760;2022-08-05T02:57:22;99421.29;;;15.02;77.88
58662;BME280;44432;49.786;22.760;2022-08-05T02:59:54;99423.80;;;15.00;77.94
58662;BME280;44432;49.786;22.760;2022-08-05T03:02:30;99420.74;;;14.99;77.90
58662;BME280;44432;49.786;22.760;2022-08-05T03:05:03;99420.20;;;14.98;78.10
58662;BME280;44432;49.786;22.760;2022-08-05T03:07:35;99416.09;;;14.95;78.01
58662;BME280;44432;49.786;22.760;2022-08-05T03:10:07;99417.73;;;14.94;78.02
58662;BME280;44432;49.786;22.760;2022-08-05T03:12:39;99416.59;;;14.93;78.15
58662;BME280;44432;49.786;22.760;2022-08-05T03:15:11;99416.17;;;14.91;78.18
58662;BME280;44432;49.786;22.760;2022-08-05T03:17:42;99418.33;;;14.90;78.14
58662;BME280;44432;49.786;22.760;2022-08-05T03:20:12;99418.28;;;14.90;78.27
58662;BME280;44432;49.786;22.760;2022-08-05T03:22:43;99417.27;;;14.89;78.22
58662;BME280;44432;49.786;22.760;2022-08-05T03:25:14;99416.90;;;14.90;78.17
58662;BME280;44432;49.786;22.760;2022-08-05T03:27:45;99413.44;;;14.89;78.13
58662;BME280;44432;49.786;22.760;2022-08-05T03:30:16;99410.40;;;14.89;78.25
58662;BME280;44432;49.786;22.760;2022-08-05T03:32:47;99414.28;;;14.89;78.29
58662;BME280;44432;49.786;22.760;2022-08-05T03:35:18;99413.55;;;14.89;78.29
58662;BME280;44432;49.786;22.760;2022-08-05T03:37:49;99412.25;;;14.89;78.28
58662;BME280;44432;49.786;22.760;2022-08-05T03:40:20;99409.71;;;14.87;78.29
58662;BME280;44432;49.786;22.760;2022-08-05T03:42:51;99415.95;;;14.88;78.36
58662;BME280;44432;49.786;22.760;2022-08-05T03:45:22;99411.39;;;14.88;78.39
58662;BME280;44432;49.786;22.760;2022-08-05T03:47:52;99406.17;;;14.90;78.41
58662;BME280;44432;49.786;22.760;2022-08-05T03:50:23;99405.45;;;14.91;78.29
58662;BME280;44432;49.786;22.760;2022-08-05T03:52:59;99402.64;;;14.92;78.37
58662;BME280;44432;49.786;22.760;2022-08-05T03:55:36;99405.19;;;14.94;78.38
58662;BME280;44432;49.786;22.760;2022-08-05T03:58:11;99402.33;;;14.98;78.48
58662;BME280;44432;49.786;22.760;2022-08-05T04:00:46;99399.26;;;15.01;78.45
58662;BME280;44432;49.786;22.760;2022-08-05T04:03:17;99397.88;;;15.05;78.44
58662;BME280;44432;49.786;22.760;2022-08-05T04:05:49;99404.10;;;15.07;78.46
58662;BME280;44432;49.786;22.760;2022-08-05T04:08:20;99403.47;;;15.11;78.45
58662;BME280;44432;49.786;22.760;2022-08-05T04:10:51;99399.44;;;15.14;78.42
58662;BME280;44432;49.786;22.760;2022-08-05T04:13:23;99393.46;;;15.16;78.43
58662;BME280;44432;49.786;22.760;2022-08-05T04:15:54;99395.52;;;15.19;78.37
58662;BME280;44432;49.786;22.760;2022-08-05T04:18:26;99397.23;;;15.26;78.47
58662;BME280;44432;49.786;22.760;2022-08-05T04:20:57;99400.49;;;15.32;78.33
58662;BME280;44432;49.786;22.760;2022-08-05T04:23:29;99397.71;;;15.37;78.34
58662;BME280;44432;49.786;22.760;2022-08-05T04:26:00;99399.23;;;15.43;78.33
58662;BME280;44432;49.786;22.760;2022-08-05T04:28:31;99397.55;;;15.48;78.18
58662;BME280;44432;49.786;22.760;2022-08-05T04:31:01;99397.22;;;15.53;78.10
58662;BME280;44432;49.786;22.760;2022-08-05T04:33:32;99402.46;;;15.59;78.12
58662;BME280;44432;49.786;22.760;2022-08-05T04:36:03;99401.61;;;15.64;78.00
58662;BME280;44432;49.786;22.760;2022-08-05T04:38:34;99405.17;;;15.71;78.01
58662;BME280;44432;49.786;22.760;2022-08-05T04:41:05;99403.84;;;15.77;77.87
58662;BME280;44432;49.786;22.760;2022-08-05T04:43:36;99404.58;;;15.85;77.87
58662;BME280;44432;49.786;22.760;2022-08-05T04:46:07;99407.25;;;15.91;77.86
58662;BME280;44432;49.786;22.760;2022-08-05T04:48:38;99404.21;;;15.99;77.76
58662;BME280;44432;49.786;22.760;2022-08-05T04:51:08;99400.27;;;16.06;77.50
58662;BME280;44432;49.786;22.760;2022-08-05T04:53:40;99400.02;;;16.14;77.53
58662;BME280;44432;49.786;22.760;2022-08-05T04:56:11;99395.27;;;16.22;77.43
58662;BME280;44432;49.786;22.760;2022-08-05T04:58:43;99396.27;;;16.30;77.30
58662;BME280;44432;49.786;22.760;2022-08-05T05:01:14;99395.30;;;16.37;77.17
58662;BME280;44432;49.786;22.760;2022-08-05T05:03:44;99395.23;;;16.47;77.04
58662;BME280;44432;49.786;22.760;2022-08-05T05:06:15;99397.08;;;16.55;76.92
58662;BME280;44432;49.786;22.760;2022-08-05T05:08:45;99398.69;;;16.65;76.88
58662;BME280;44432;49.786;22.760;2022-08-05T05:11:16;99397.71;;;16.73;76.73
58662;BME280;44432;49.786;22.760;2022-08-05T05:13:47;99398.63;;;16.82;76.56
58662;BME280;44432;49.786;22.760;2022-08-05T05:16:17;99396.16;;;16.91;76.52
58662;BME280;44432;49.786;22.760;2022-08-05T05:18:48;99398.45;;;17.01;76.47
58662;BME280;44432;49.786;22.760;2022-08-05T05:21:18;99399.84;;;17.11;76.26
58662;BME280;44432;49.786;22.760;2022-08-05T05:23:49;99400.90;;;17.21;76.17
58662;BME280;44432;49.786;22.760;2022-08-05T05:26:20;99399.66;;;17.32;76.04
58662;BME280;44432;49.786;22.760;2022-08-05T05:28:51;99402.69;;;17.44;76.01
58662;BME280;44432;49.786;22.760;2022-08-05T05:31:22;99403.16;;;17.54;75.91
58662;BME280;44432;49.786;22.760;2022-08-05T05:33:52;99395.63;;;17.66;75.62
58662;BME280;44432;49.786;22.760;2022-08-05T05:36:23;99397.95;;;17.79;75.52
58662;BME280;44432;49.786;22.760;2022-08-05T05:38:53;99400.23;;;17.91;75.19
58662;BME280;44432;49.786;22.760;2022-08-05T05:41:25;99402.06;;;18.02;75.16
58662;BME280;44432;49.786;22.760;2022-08-05T05:43:55;99402.15;;;18.16;74.95
58662;BME280;44432;49.786;22.760;2022-08-05T05:46:26;99397.77;;;18.28;74.79
58662;BME280;44432;49.786;22.760;2022-08-05T05:48:57;99395.11;;;18.41;74.56
58662;BME280;44432;49.786;22.760;2022-08-05T05:51:27;99389.02;;;18.54;74.45
58662;BME280;44432;49.786;22.760;2022-08-05T05:53:58;99391.51;;;18.69;74.21
58662;BME280;44432;49.786;22.760;2022-08-05T05:56:30;99395.27;;;18.84;73.92
58662;BME280;44432;49.786;22.760;2022-08-05T05:59:01;99391.56;;;18.96;73.58
58662;BME280;44432;49.786;22.760;2022-08-05T06:01:31;99391.96;;;19.09;73.10
58662;BME280;44432;49.786;22.760;2022-08-05T06:04:02;99391.61;;;19.21;72.73
58662;BME280;44432;49.786;22.760;2022-08-05T06:06:33;99392.16;;;19.35;72.37
58662;BME280;44432;49.786;22.760;2022-08-05T06:09:05;99391.58;;;19.47;71.91
58662;BME280;44432;49.786;22.760;2022-08-05T06:11:36;99386.89;;;19.60;71.46
58662;BME280;44432;49.786;22.760;2022-08-05T06:14:06;99386.77;;;19.73;71.28
58662;BME280;44432;49.786;22.760;2022-08-05T06:16:37;99379.23;;;19.85;70.96
58662;BME280;44432;49.786;22.760;2022-08-05T06:19:07;99378.50;;;20.00;70.40
58662;BME280;44432;49.786;22.760;2022-08-05T06:21:38;99375.25;;;20.15;70.14
58662;BME280;44432;49.786;22.760;2022-08-05T06:24:09;99377.98;;;20.29;69.72
58662;BME280;44432;49.786;22.760;2022-08-05T06:26:40;99383.39;;;20.42;69.33
58662;BME280;44432;49.786;22.760;2022-08-05T06:29:11;99382.70;;;20.55;69.20
58662;BME280;44432;49.786;22.760;2022-08-05T06:31:41;99385.64;;;20.70;68.99
58662;BME280;44432;49.786;22.760;2022-08-05T06:34:12;99386.55;;;20.84;68.50
58662;BME280;44432;49.786;22.760;2022-08-05T06:36:42;99384.56;;;21.02;68.49
58662;BME280;44432;49.786;22.760;2022-08-05T06:39:13;99378.77;;;21.19;67.88
58662;BME280;44432;49.786;22.760;2022-08-05T06:41:44;99383.88;;;21.35;67.50
58662;BME280;44432;49.786;22.760;2022-08-05T06:44:14;99379.58;;;21.51;67.21
58662;BME280;44432;49.786;22.760;2022-08-05T06:46:45;99380.40;;;21.68;66.91
58662;BME280;44432;49.786;22.760;2022-08-05T06:49:15;99376.63;;;21.84;66.40
58662;BME280;44432;49.786;22.760;2022-08-05T06:51:46;99367.95;;;22.02;65.99
58662;BME280;44432;49.786;22.760;2022-08-05T06:54:17;99364.55;;;22.19;65.53
58662;BME280;44432;49.786;22.760;2022-08-05T06:56:47;99368.39;;;22.36;65.09
58662;BME280;44432;49.786;22.760;2022-08-05T06:59:18;99367.20;;;22.50;64.36
58662;BME280;44432;49.786;22.760;2022-08-05T07:01:48;99371.83;;;22.66;64.04
58662;BME280;44432;49.786;22.760;2022-08-05T07:04:19;99370.10;;;22.81;63.34
58662;BME280;44432;49.786;22.760;2022-08-05T07:06:49;99370.84;;;22.96;62.81
58662;BME280;44432;49.786;22.760;2022-08-05T07:09:20;99367.31;;;23.08;62.33
58662;BME280;44432;49.786;22.760;2022-08-05T07:11:50;99361.39;;;23.22;61.84
58662;BME280;44432;49.786;22.760;2022-08-05T07:14:21;99357.55;;;23.33;61.55
58662;BME280;44432;49.786;22.760;2022-08-05T07:17:09;99363.30;;;23.47;61.20
58662;BME280;44432;49.786;22.760;2022-08-05T07:19:40;99360.98;;;23.58;60.63
58662;BME280;44432;49.786;22.760;2022-08-05T07:22:11;99357.90;;;23.69;60.38
58662;BME280;44432;49.786;22.760;2022-08-05T07:24:41;99359.52;;;23.78;60.14
58662;BME280;44432;49.786;22.760;2022-08-05T07:27:12;99353.64;;;23.87;59.68
58662;BME280;44432;49.786;22.760;2022-08-05T07:29:42;99359.90;;;23.98;59.52
58662;BME280;44432;49.786;22.760;2022-08-05T07:32:13;99359.12;;;24.09;59.41
58662;BME280;44432;49.786;22.760;2022-08-05T07:34:44;99359.90;;;24.19;58.99
58662;BME280;44432;49.786;22.760;2022-08-05T07:37:14;99360.13;;;24.28;58.56
58662;BME280;44432;49.786;22.760;2022-08-05T07:39:45;99357.19;;;24.37;58.50
58662;BME280;44432;49.786;22.760;2022-08-05T07:42:16;99359.73;;;24.47;58.27
58662;BME280;44432;49.786;22.760;2022-08-05T07:44:46;99355.26;;;24.57;57.73
58662;BME280;44432;49.786;22.760;2022-08-05T07:47:17;99356.52;;;24.66;57.66
58662;BME280;44432;49.786;22.760;2022-08-05T07:49:48;99356.98;;;24.74;57.34
58662;BME280;44432;49.786;22.760;2022-08-05T07:52:20;99359.45;;;24.83;57.28
58662;BME280;44432;49.786;22.760;2022-08-05T07:54:51;99358.16;;;24.92;56.90
58662;BME280;44432;49.786;22.760;2022-08-05T07:57:21;99356.90;;;25.00;56.86
58662;BME280;44432;49.786;22.760;2022-08-05T07:59:52;99359.83;;;25.09;56.73
58662;BME280;44432;49.786;22.760;2022-08-05T08:02:26;99358.22;;;25.20;56.68
58662;BME280;44432;49.786;22.760;2022-08-05T08:04:58;99362.05;;;25.31;56.35
58662;BME280;44432;49.786;22.760;2022-08-05T08:07:29;99358.34;;;25.41;56.18
58662;BME280;44432;49.786;22.760;2022-08-05T08:10:00;99358.00;;;25.53;55.86
58662;BME280;44432;49.786;22.760;2022-08-05T08:12:30;99352.79;;;25.63;55.40
58662;BME280;44432;49.786;22.760;2022-08-05T08:15:02;99351.33;;;25.72;55.34
58662;BME280;44432;49.786;22.760;2022-08-05T08:17:33;99351.34;;;25.81;55.23
58662;BME280;44432;49.786;22.760;2022-08-05T08:20:04;99354.13;;;25.91;54.66
58662;BME280;44432;49.786;22.760;2022-08-05T08:22:35;99356.92;;;25.97;54.60
58662;BME280;44432;49.786;22.760;2022-08-05T08:25:07;99351.48;;;26.05;54.71
58662;BME280;44432;49.786;22.760;2022-08-05T08:27:38;99348.95;;;26.17;54.58
58662;BME280;44432;49.786;22.760;2022-08-05T08:30:12;99347.60;;;26.30;54.36
58662;BME280;44432;49.786;22.760;2022-08-05T08:32:42;99343.89;;;26.43;54.18
58662;BME280;44432;49.786;22.760;2022-08-05T08:35:13;99343.21;;;26.55;53.56
58662;BME280;44432;49.786;22.760;2022-08-05T08:37:43;99340.85;;;26.67;53.33
58662;BME280;44432;49.786;22.760;2022-08-05T08:40:14;99339.00;;;26.80;52.58
58662;BME280;44432;49.786;22.760;2022-08-05T08:42:48;99336.23;;;26.90;52.08
58662;BME280;44432;49.786;22.760;2022-08-05T08:45:21;99336.80;;;27.02;51.51
58662;BME280;44432;49.786;22.760;2022-08-05T08:47:53;99334.54;;;27.11;51.20
58662;BME280;44432;49.786;22.760;2022-08-05T08:50:25;99334.30;;;27.22;50.84
58662;BME280;44432;49.786;22.760;2022-08-05T08:53:02;99334.35;;;27.30;50.40
58662;BME280;44432;49.786;22.760;2022-08-05T08:55:35;99331.98;;;27.38;50.26
58662;BME280;44432;49.786;22.760;2022-08-05T08:58:07;99331.55;;;27.46;49.79
58662;BME280;44432;49.786;22.760;2022-08-05T09:00:40;99331.47;;;27.53;49.55
58662;BME280;44432;49.786;22.760;2022-08-05T09:03:12;99328.24;;;27.59;49.34
58662;BME280;44432;49.786;22.760;2022-08-05T09:05:42;99327.58;;;27.65;49.18
58662;BME280;44432;49.786;22.760;2022-08-05T09:08:13;99325.86;;;27.70;48.81
58662;BME280;44432;49.786;22.760;2022-08-05T09:10:44;99327.46;;;27.78;48.59
58662;BME280;44432;49.786;22.760;2022-08-05T09:13:15;99318.84;;;27.81;48.25
58662;BME280;44432;49.786;22.760;2022-08-05T09:15:47;99316.87;;;27.86;48.29
58662;BME280;44432;49.786;22.760;2022-08-05T09:18:18;99308.20;;;27.91;47.92
58662;BME280;44432;49.786;22.760;2022-08-05T09:20:50;99304.27;;;27.98;47.73
58662;BME280;44432;49.786;22.760;2022-08-05T09:23:20;99305.87;;;28.03;47.31
58662;BME280;44432;49.786;22.760;2022-08-05T09:26:05;99299.38;;;28.08;47.01
58662;BME280;44432;49.786;22.760;2022-08-05T09:28:37;99304.27;;;28.13;46.32
58662;BME280;44432;49.786;22.760;2022-08-05T09:31:10;99306.46;;;28.17;46.35
58662;BME280;44432;49.786;22.760;2022-08-05T09:33:51;99301.54;;;28.21;46.44
58662;BME280;44432;49.786;22.760;2022-08-05T09:36:23;99289.48;;;28.24;46.08
58662;BME280;44432;49.786;22.760;2022-08-05T09:38:59;99285.89;;;28.28;46.23
58662;BME280;44432;49.786;22.760;2022-08-05T09:41:30;99285.38;;;28.34;46.35
58662;BME280;44432;49.786;22.760;2022-08-05T09:44:00;99286.85;;;28.43;46.46
58662;BME280;44432;49.786;22.760;2022-08-05T09:46:32;99283.27;;;28.51;45.92
58662;BME280;44432;49.786;22.760;2022-08-05T09:49:04;99281.53;;;28.54;45.35
58662;BME280;44432;49.786;22.760;2022-08-05T09:51:51;99277.94;;;28.55;45.52
58662;BME280;44432;49.786;22.760;2022-08-05T09:54:29;99283.16;;;28.62;45.58
58662;BME280;44432;49.786;22.760;2022-08-05T09:57:00;99282.07;;;28.70;45.36
58662;BME280;44432;49.786;22.760;2022-08-05T09:59:30;99283.59;;;28.76;45.06
58662;BME280;44432;49.786;22.760;2022-08-05T10:02:01;99287.13;;;28.83;45.06
58662;BME280;44432;49.786;22.760;2022-08-05T10:04:36;99287.91;;;28.91;44.97
58662;BME280;44432;49.786;22.760;2022-08-05T10:07:09;99283.88;;;28.98;44.90
58662;BME280;44432;49.786;22.760;2022-08-05T10:09:54;99277.20;;;29.01;44.69
58662;BME280;44432;49.786;22.760;2022-08-05T10:12:25;99278.10;;;29.00;44.45
58662;BME280;44432;49.786;22.760;2022-08-05T10:15:13;99276.40;;;28.97;44.20
58662;BME280;44432;49.786;22.760;2022-08-05T10:17:45;99274.58;;;29.01;44.25
58662;BME280;44432;49.786;22.760;2022-08-05T10:20:33;99273.13;;;29.10;44.32
58662;BME280;44432;49.786;22.760;2022-08-05T10:23:04;99270.19;;;29.20;44.18
58662;BME280;44432;49.786;22.760;2022-08-05T10:25:35;99267.09;;;29.30;43.95
58662;BME280;44432;49.786;22.760;2022-08-05T10:28:05;99267.91;;;29.36;43.48
58662;BME280;44432;49.786;22.760;2022-08-05T10:30:37;99274.23;;;29.34;43.25
58662;BME280;44432;49.786;22.760;2022-08-05T10:33:08;99268.15;;;29.34;43.15
58662;BME280;44432;49.786;22.760;2022-08-05T10:35:38;99265.13;;;29.40;43.23
58662;BME280;44432;49.786;22.760;2022-08-05T10:38:09;99261.73;;;29.43;42.91
58662;BME280;44432;49.786;22.760;2022-08-05T10:40:45;99259.84;;;29.38;42.49
58662;BME280;44432;49.786;22.760;2022-08-05T10:43:34;99260.52;;;29.35;42.49
58662;BME280;44432;49.786;22.760;2022-08-05T10:46:07;99260.51;;;29.42;42.54
58662;BME280;44432;49.786;22.760;2022-08-05T10:48:39;99255.54;;;29.48;42.64
58662;BME280;44432;49.786;22.760;2022-08-05T10:51:10;99255.98;;;29.52;42.32
58662;BME280;44432;49.786;22.760;2022-08-05T10:53:51;99254.94;;;29.53;42.11
58662;BME280;44432;49.786;22.760;2022-08-05T10:56:23;99251.52;;;29.56;42.04
58662;BME280;44432;49.786;22.760;2022-08-05T10:59:03;99244.36;;;29.60;41.70
58662;BME280;44432;49.786;22.760;2022-08-05T11:01:36;99245.41;;;29.55;41.58
58662;BME280;44432;49.786;22.760;2022-08-05T11:04:09;99247.31;;;29.54;41.66
58662;BME280;44432;49.786;22.760;2022-08-05T11:07:04;99239.30;;;29.55;41.64
58662;BME280;44432;49.786;22.760;2022-08-05T11:09:43;99243.11;;;29.58;41.40
58662;BME280;44432;49.786;22.760;2022-08-05T11:12:44;99238.16;;;29.58;41.63
58662;BME280;44432;49.786;22.760;2022-08-05T11:15:20;99234.06;;;29.62;41.67
58662;BME280;44432;49.786;22.760;2022-08-05T11:17:51;99233.35;;;29.69;41.52
58662;BME280;44432;49.786;22.760;2022-08-05T11:20:48;99237.73;;;29.75;41.36
58662;BME280;44432;49.786;22.760;2022-08-05T11:23:31;99235.42;;;29.70;40.81
58662;BME280;44432;49.786;22.760;2022-08-05T11:26:04;99234.38;;;29.69;40.51
58662;BME280;44432;49.786;22.760;2022-08-05T11:28:43;99232.83;;;29.69;40.43
58662;BME280;44432;49.786;22.760;2022-08-05T11:31:25;99231.42;;;29.70;40.37
58662;BME280;44432;49.786;22.760;2022-08-05T11:34:07;99232.27;;;29.74;40.54
58662;BME280;44432;49.786;22.760;2022-08-05T11:36:45;99229.34;;;29.80;40.80
58662;BME280;44432;49.786;22.760;2022-08-05T11:42:02;99225.84;;;29.92;40.79
58662;BME280;44432;49.786;22.760;2022-08-05T11:44:37;99227.56;;;29.97;40.56
58662;BME280;44432;49.786;22.760;2022-08-05T11:47:09;99225.38;;;30.01;40.63
58662;BME280;44432;49.786;22.760;2022-08-05T11:49:41;99225.49;;;30.03;40.32
58662;BME280;44432;49.786;22.760;2022-08-05T11:52:12;99225.25;;;30.02;40.01
58662;BME280;44432;49.786;22.760;2022-08-05T11:54:44;99224.42;;;30.03;40.18
58662;BME280;44432;49.786;22.760;2022-08-05T11:57:20;99223.74;;;30.04;40.12
58662;BME280;44432;49.786;22.760;2022-08-05T11:59:51;99218.32;;;30.07;40.03
58662;BME280;44432;49.786;22.760;2022-08-05T12:02:27;99217.09;;;30.10;39.95
58662;BME280;44432;49.786;22.760;2022-08-05T12:05:01;99216.23;;;30.13;39.65
58662;BME280;44432;49.786;22.760;2022-08-05T12:07:33;99213.81;;;30.19;39.80
58662;BME280;44432;49.786;22.760;2022-08-05T12:10:06;99211.02;;;30.24;39.57
58662;BME280;44432;49.786;22.760;2022-08-05T12:12:38;99214.20;;;30.29;38.89
58662;BME280;44432;49.786;22.760;2022-08-05T12:15:19;99210.94;;;30.37;38.49
58662;BME280;44432;49.786;22.760;2022-08-05T12:17:50;99212.43;;;30.43;38.68
58662;BME280;44432;49.786;22.760;2022-08-05T12:20:27;99209.48;;;30.44;38.51
58662;BME280;44432;49.786;22.760;2022-08-05T12:23:09;99208.38;;;30.40;38.62
58662;BME280;44432;49.786;22.760;2022-08-05T12:25:53;99204.36;;;30.39;38.69
58662;BME280;44432;49.786;22.760;2022-08-05T12:28:35;99205.86;;;30.42;38.85
58662;BME280;44432;49.786;22.760;2022-08-05T12:31:06;99203.70;;;30.43;38.79
58662;BME280;44432;49.786;22.760;2022-08-05T12:33:38;99200.59;;;30.48;38.74
58662;BME280;44432;49.786;22.760;2022-08-05T12:36:09;99202.94;;;30.59;38.53
58662;BME280;44432;49.786;22.760;2022-08-05T12:38:41;99197.41;;;30.65;38.38
58662;BME280;44432;49.786;22.760;2022-08-05T12:41:14;99195.48;;;30.68;38.03
58662;BME280;44432;49.786;22.760;2022-08-05T12:43:53;99191.59;;;30.68;37.52
58662;BME280;44432;49.786;22.760;2022-08-05T12:46:26;99195.63;;;30.68;37.52
58662;BME280;44432;49.786;22.760;2022-08-05T12:49:06;99197.26;;;30.70;37.31
58662;BME280;44432;49.786;22.760;2022-08-05T12:51:46;99193.98;;;30.73;37.25
58662;BME280;44432;49.786;22.760;2022-08-05T12:54:22;99194.88;;;30.81;37.06
58662;BME280;44432;49.786;22.760;2022-08-05T12:56:54;99192.67;;;30.85;36.36
58662;BME280;44432;49.786;22.760;2022-08-05T12:59:26;99191.06;;;30.89;36.40
58662;BME280;44432;49.786;22.760;2022-08-05T13:01:59;99179.31;;;30.93;36.38
58662;BME280;44432;49.786;22.760;2022-08-05T13:04:31;99181.10;;;30.93;36.32
58662;BME280;44432;49.786;22.760;2022-08-05T13:07:01;99181.58;;;30.93;36.50
58662;BME280;44432;49.786;22.760;2022-08-05T13:09:33;99178.58;;;30.91;36.64
58662;BME280;44432;49.786;22.760;2022-08-05T13:12:06;99186.38;;;30.85;36.67
58662;BME280;44432;49.786;22.760;2022-08-05T13:14:39;99183.05;;;30.80;36.66
58662;BME280;44432;49.786;22.760;2022-08-05T13:17:15;99187.55;;;30.77;36.52
58662;BME280;44432;49.786;22.760;2022-08-05T13:20:02;99181.84;;;30.73;36.28
58662;BME280;44432;49.786;22.760;2022-08-05T13:22:36;99175.34;;;30.66;36.41